createdAt,value
2023-01-04T00:01:44.009Z,99479.44
2023-01-04T00:04:45.510Z,99473.25
2023-01-04T00:07:47.029Z,99472.97
2023-01-04T00:10:48.560Z,99459.75
2023-01-04T00:13:51.812Z,99460.41
2023-01-04T00:16:53.466Z,99444.06
2023-01-04T00:19:54.955Z,99445.91
2023-01-04T00:22:56.492Z,99450.53
2023-01-04T00:25:58.006Z,99448.19
2023-01-04T00:29:04.429Z,99450.75
2023-01-04T00:32:05.974Z,99446.47
2023-01-04T00:35:07.611Z,99443.78
2023-01-04T00:38:09.129Z,99431.22
2023-01-04T00:41:23.107Z,99426.34
2023-01-04T00:44:34.000Z,99427.69
2023-01-04T00:47:35.439Z,99414.72
2023-01-04T00:50:36.989Z,99425.47
2023-01-04T00:53:38.504Z,99421.19
2023-01-04T00:56:40.076Z,99411.13
2023-01-04T00:59:41.585Z,99420.59
2023-01-04T01:02:43.235Z,99420.38
2023-01-04T01:05:44.940Z,99409.94
2023-01-04T01:08:46.446Z,99424.06
2023-01-04T01:11:48.049Z,99421.84
2023-01-04T01:14:49.551Z,99433.75
2023-01-04T01:17:51.077Z,99431.41
2023-01-04T01:20:52.766Z,99430.31
2023-01-04T01:23:54.926Z,99431.34
2023-01-04T01:26:56.501Z,99431.91
2023-01-04T01:29:58.011Z,99434.47
2023-01-04T01:32:59.531Z,99436.47
2023-01-04T01:36:02.190Z,99441.31
2023-01-04T01:39:04.631Z,99443.66
2023-01-04T01:42:06.177Z,99442.50
2023-01-04T01:45:22.727Z,99433.75
2023-01-04T01:48:27.425Z,99441.84
2023-01-04T01:51:29.017Z,99436.72
2023-01-04T01:54:36.242Z,99442.66
2023-01-04T01:57:38.115Z,99451.91
2023-01-04T02:00:39.653Z,99447.94
2023-01-04T02:03:42.418Z,99447.00
2023-01-04T02:06:47.522Z,99435.81
2023-01-04T02:09:49.428Z,99436.69
2023-01-04T02:12:51.890Z,99431.13
2023-01-04T02:15:56.392Z,99430.03
2023-01-04T02:19:36.913Z,99422.81
2023-01-04T02:22:59.790Z,99420.84
2023-01-04T02:26:29.303Z,99416.63
2023-01-04T02:29:53.572Z,99406.78
2023-01-04T02:32:55.007Z,99407.38
2023-01-04T02:36:08.672Z,99389.34
2023-01-04T02:39:23.050Z,99396.44
2023-01-04T02:42:55.611Z,99403.50
2023-01-04T02:46:02.616Z,99390.38
2023-01-04T02:49:22.800Z,99393.28
2023-01-04T02:52:26.623Z,99396.28
2023-01-04T02:55:41.010Z,99399.69
2023-01-04T02:58:56.371Z,99389.75
2023-01-04T03:02:34.516Z,99382.78
2023-01-04T03:06:17.813Z,99373.00
2023-01-04T03:09:21.905Z,99378.09
2023-01-04T03:12:32.043Z,99385.13
2023-01-04T03:15:34.653Z,99378.06
2023-01-04T03:18:38.316Z,99374.25
2023-01-04T03:21:42.439Z,99365.84
2023-01-04T03:25:02.533Z,99376.06
2023-01-04T03:28:22.688Z,99368.66
2023-01-04T03:31:52.637Z,99374.44
2023-01-04T03:35:12.868Z,99364.53
2023-01-04T03:38:40.188Z,99349.59
2023-01-04T03:42:14.829Z,99347.69
2023-01-04T03:45:41.078Z,99336.25
2023-01-04T03:49:06.232Z,99329.25
2023-01-04T03:52:07.770Z,99332.44
2023-01-04T03:55:09.603Z,99323.00
2023-01-04T03:58:11.629Z,99328.09
2023-01-04T04:01:13.303Z,99319.69
2023-01-04T04:04:33.594Z,99316.75
2023-01-04T04:07:53.866Z,99309.00
2023-01-04T04:10:57.815Z,99310.41
2023-01-04T04:13:59.860Z,99296.78
2023-01-04T04:17:01.506Z,99302.78
2023-01-04T04:20:03.351Z,99292.72
2023-01-04T04:23:04.886Z,99287.28
2023-01-04T04:26:06.471Z,99290.91
2023-01-04T04:29:08.031Z,99295.75
2023-01-04T04:32:09.604Z,99293.13
2023-01-04T04:35:11.541Z,99286.44
2023-01-04T04:38:13.095Z,99278.06
2023-01-04T04:41:33.166Z,99280.06
2023-01-04T04:44:34.743Z,99269.06
2023-01-04T04:47:36.296Z,99268.28
2023-01-04T04:50:37.845Z,99261.09
2023-01-04T04:53:39.358Z,99262.78
2023-01-04T04:56:40.936Z,99257.00
2023-01-04T04:59:42.455Z,99261.72
2023-01-04T05:02:44.033Z,99265.03
2023-01-04T05:05:45.727Z,99267.66
2023-01-04T05:08:47.243Z,99259.97
2023-01-04T05:12:07.426Z,99269.47
2023-01-04T05:15:09.156Z,99255.81
2023-01-04T05:18:11.882Z,99254.94
2023-01-04T05:21:17.015Z,99253.66
2023-01-04T05:24:21.599Z,99248.47
2023-01-04T05:27:23.128Z,99246.66
2023-01-04T05:30:43.348Z,99247.81
2023-01-04T05:33:44.876Z,99248.97
2023-01-04T05:36:46.409Z,99250.78
2023-01-04T05:39:47.914Z,99254.38
2023-01-04T05:42:49.587Z,99264.88
2023-01-04T05:45:52.979Z,99265.75
2023-01-04T05:48:54.539Z,99278.00
2023-01-04T05:51:56.088Z,99285.81
2023-01-04T05:54:57.627Z,99294.88
2023-01-04T05:57:59.203Z,99304.69
2023-01-04T06:01:00.741Z,99323.22
2023-01-04T06:04:02.278Z,99326.84
2023-01-04T06:07:03.859Z,99357.97
2023-01-04T06:10:07.441Z,99379.63
2023-01-04T06:13:09.028Z,99403.16
2023-01-04T06:16:10.615Z,99432.63
2023-01-04T06:19:12.210Z,99446.38
2023-01-04T06:22:13.781Z,99474.22
2023-01-04T06:25:15.549Z,99493.94
2023-01-04T06:28:17.087Z,99497.41
2023-01-04T06:31:18.623Z,99513.13
2023-01-04T06:34:23.979Z,99510.28
2023-01-04T06:37:28.462Z,99508.31
2023-01-04T06:40:30.005Z,99515.19
2023-01-04T06:43:31.567Z,99511.66
2023-01-04T06:46:33.200Z,99503.84
2023-01-04T06:49:34.862Z,99499.41
2023-01-04T06:52:36.657Z,99512.41
2023-01-04T06:55:38.239Z,99509.94
2023-01-04T06:58:39.906Z,99528.22
2023-01-04T07:01:41.657Z,99532.56
2023-01-04T07:04:43.421Z,99532.16
2023-01-04T07:07:45.085Z,99519.22
2023-01-04T07:10:46.646Z,99524.59
2023-01-04T07:13:48.165Z,99510.91
2023-01-04T07:16:49.816Z,99516.75
2023-01-04T07:19:51.406Z,99522.75
2023-01-04T07:22:53.127Z,99520.41
2023-01-04T07:25:54.676Z,99506.00
2023-01-04T07:29:14.625Z,99481.63
2023-01-04T07:32:16.218Z,99470.53
2023-01-04T07:35:17.742Z,99480.63
2023-01-04T07:38:19.242Z,99490.47
2023-01-04T07:41:20.785Z,99490.41
2023-01-04T07:44:22.365Z,99494.19
2023-01-04T07:47:23.872Z,99498.44
2023-01-04T07:50:25.391Z,99484.44
2023-01-04T07:53:27.023Z,99483.63
2023-01-04T07:56:28.572Z,99446.72
2023-01-04T07:59:30.152Z,99434.63
2023-01-04T08:02:31.867Z,99428.22
2023-01-04T08:05:34.232Z,99412.28
2023-01-04T08:08:35.748Z,99405.84
2023-01-04T08:11:37.387Z,99398.78
2023-01-04T08:14:39.204Z,99392.53
2023-01-04T08:17:40.781Z,99396.56
2023-01-04T08:20:42.290Z,99389.25
2023-01-04T08:23:43.858Z,99401.78
2023-01-04T08:26:45.680Z,99426.28
2023-01-04T08:29:47.328Z,99438.63
2023-01-04T08:32:50.613Z,99430.97
2023-01-04T08:35:52.185Z,99452.78
2023-01-04T08:38:59.742Z,99465.38
2023-01-04T08:42:14.505Z,99483.69
2023-01-04T08:45:20.634Z,99487.13
2023-01-04T08:48:24.678Z,99500.44
2023-01-04T08:51:26.771Z,99507.47
2023-01-04T08:54:28.324Z,99512.59
2023-01-04T08:57:29.848Z,99516.34
2023-01-04T09:00:31.366Z,99526.88
2023-01-04T09:03:33.186Z,99529.34
2023-01-04T09:06:35.103Z,99525.28
2023-01-04T09:09:36.648Z,99534.81
2023-01-04T09:12:38.250Z,99540.53
2023-01-04T09:15:39.805Z,99521.25
2023-01-04T09:18:41.417Z,99511.53
2023-01-04T09:21:42.994Z,99529.97
2023-01-04T09:24:44.759Z,99523.09
2023-01-04T09:27:46.415Z,99533.59
2023-01-04T09:30:48.008Z,99552.75
2023-01-04T09:37:11.255Z,99544.28
2023-01-04T09:40:19.979Z,99545.03
2023-01-04T09:43:22.425Z,99532.09
2023-01-04T09:46:26.823Z,99553.00
2023-01-04T09:49:44.275Z,99548.66
2023-01-04T09:52:56.774Z,99552.94
2023-01-04T09:56:02.417Z,99550.25
2023-01-04T09:59:09.196Z,99558.28
2023-01-04T10:02:17.073Z,99552.97
2023-01-04T10:05:23.863Z,99547.78
2023-01-04T10:08:25.459Z,99548.84
2023-01-04T10:11:35.203Z,99529.69
2023-01-04T10:14:58.619Z,99523.00
2023-01-04T10:21:37.311Z,99544.34
2023-01-04T10:24:38.909Z,99558.22
2023-01-04T10:28:00.821Z,99542.75
2023-01-04T10:31:38.760Z,99547.22
2023-01-04T10:34:39.008Z,99530.84
2023-01-04T10:37:40.588Z,99525.72
2023-01-04T10:40:42.398Z,99516.13
2023-01-04T10:44:12.101Z,99507.47
2023-01-04T10:47:35.736Z,99497.16
2023-01-04T10:50:45.473Z,99498.75
2023-01-04T10:54:11.215Z,99496.22
2023-01-04T10:57:26.826Z,99484.16
2023-01-04T11:00:35.354Z,99501.50
2023-01-04T11:03:57.111Z,99488.47
2023-01-04T11:07:10.579Z,99484.06
2023-01-04T11:10:18.481Z,99488.56
2023-01-04T11:13:20.046Z,99486.84
2023-01-04T11:16:21.668Z,99487.78
2023-01-04T11:19:23.263Z,99480.06
2023-01-04T11:22:31.854Z,99487.88
2023-01-04T11:25:36.905Z,99482.00
2023-01-04T11:28:49.275Z,99469.88
2023-01-04T11:31:56.716Z,99462.13
2023-01-04T11:34:58.316Z,99470.03
2023-01-04T11:38:09.814Z,99462.19
2023-01-04T11:41:11.304Z,99475.25
2023-01-04T11:44:12.832Z,99460.47
2023-01-04T11:47:21.197Z,99455.34
2023-01-04T11:50:46.320Z,99459.59
2023-01-04T11:53:57.669Z,99470.03
2023-01-04T11:57:01.565Z,99469.13
2023-01-04T12:00:15.766Z,99469.06
2023-01-04T12:03:18.979Z,99468.19
2023-01-04T12:06:50.572Z,99472.66
2023-01-04T12:09:52.108Z,99470.91
2023-01-04T12:12:54.383Z,99482.09
2023-01-04T12:16:05.906Z,99488.19
2023-01-04T12:19:08.644Z,99483.03
2023-01-04T12:22:36.762Z,99475.00
2023-01-04T12:25:45.788Z,99473.25
2023-01-04T12:28:48.971Z,99479.25
2023-01-04T12:32:05.643Z,99476.66
2023-01-04T12:35:32.376Z,99474.91
2023-01-04T12:38:52.266Z,99470.44
2023-01-04T12:42:03.749Z,99469.56
2023-01-04T12:45:10.805Z,99451.31
2023-01-04T12:48:46.372Z,99458.41
2023-01-04T12:52:20.445Z,99433.28
2023-01-04T12:55:31.490Z,99446.44
2023-01-04T12:59:06.685Z,99441.16
2023-01-04T13:02:16.851Z,99445.47
2023-01-04T13:05:54.905Z,99432.47
2023-01-04T13:08:40.953Z,99438.59
2023-01-04T13:12:14.716Z,99432.41
2023-01-04T13:15:35.383Z,99432.56
2023-01-04T13:18:41.030Z,99431.75
2023-01-04T13:21:46.223Z,99437.03
2023-01-04T13:24:48.010Z,99421.28
2023-01-04T13:27:59.995Z,99420.44
2023-01-04T13:31:01.666Z,99421.25
2023-01-04T13:34:03.318Z,99416.84
2023-01-04T13:37:11.040Z,99417.91
2023-01-04T13:40:17.327Z,99410.19
2023-01-04T13:43:34.385Z,99400.66
2023-01-04T13:46:35.914Z,99395.47
2023-01-04T13:49:38.580Z,99397.03
2023-01-04T13:52:59.820Z,99406.63
2023-01-04T13:56:03.123Z,99398.75
2023-01-04T13:59:04.718Z,99400.38
2023-01-04T14:02:17.242Z,99377.06
2023-01-04T14:05:19.011Z,99376.19
2023-01-04T14:08:49.947Z,99377.94
2023-01-04T14:12:06.084Z,99377.88
2023-01-04T14:15:21.974Z,99376.19
2023-01-04T14:18:30.173Z,99377.00
2023-01-04T14:21:36.313Z,99377.91
2023-01-04T14:28:28.493Z,99387.41
2023-01-04T14:31:31.220Z,99384.78
2023-01-04T14:34:32.800Z,99383.00
2023-01-04T14:37:35.194Z,99376.84
2023-01-04T14:40:36.562Z,99377.81
2023-01-04T14:43:49.789Z,99376.00
2023-01-04T14:46:53.191Z,99380.38
2023-01-04T14:49:54.835Z,99377.78
2023-01-04T14:52:56.402Z,99374.31
2023-01-04T14:55:58.145Z,99383.75
2023-01-04T14:59:00.193Z,99379.44
2023-01-04T15:02:01.841Z,99364.56
2023-01-04T15:05:03.522Z,99371.50
2023-01-04T15:08:05.254Z,99356.91
2023-01-04T15:11:06.783Z,99365.56
2023-01-04T15:14:08.306Z,99358.56
2023-01-04T15:17:10.364Z,99344.69
2023-01-04T15:20:12.115Z,99341.19
2023-01-04T15:23:13.729Z,99333.41
2023-01-04T15:26:15.778Z,99331.72
2023-01-04T15:29:17.358Z,99331.72
2023-01-04T15:32:18.953Z,99350.94
2023-01-04T15:35:20.612Z,99335.19
2023-01-04T15:38:22.143Z,99343.72
2023-01-04T15:41:42.369Z,99335.19
2023-01-04T15:44:44.082Z,99319.56
2023-01-04T15:47:45.722Z,99330.09
2023-01-04T15:50:47.235Z,99315.16
2023-01-04T15:53:52.267Z,99305.69
2023-01-04T15:56:53.849Z,99312.56
2023-01-04T15:59:55.354Z,99304.69
2023-01-04T16:02:56.967Z,99310.69
2023-01-04T16:06:03.431Z,99296.94
2023-01-04T16:09:05.593Z,99289.94
2023-01-04T16:12:26.169Z,99280.31
2023-01-04T16:15:27.713Z,99266.56
2023-01-04T16:18:32.551Z,99271.91
2023-01-04T16:21:34.450Z,99243.50
2023-01-04T16:27:57.585Z,99279.84
2023-01-04T16:30:59.233Z,99275.44
2023-01-04T16:34:00.841Z,99268.56
2023-01-04T16:37:02.369Z,99279.75
2023-01-04T16:40:07.151Z,99266.81
2023-01-04T16:43:09.744Z,99269.38
2023-01-04T16:46:31.200Z,99281.41
2023-01-04T16:49:32.848Z,99251.75
2023-01-04T16:52:34.440Z,99258.63
2023-01-04T16:55:35.978Z,99236.16
2023-01-04T16:58:37.671Z,99231.66
2023-01-04T17:01:47.877Z,99229.88
2023-01-04T17:04:56.957Z,99205.53
2023-01-04T17:07:58.469Z,99206.56
2023-01-04T17:11:38.480Z,99218.81
2023-01-04T17:14:29.874Z,99219.81
2023-01-04T17:17:31.402Z,99219.75
2023-01-04T17:20:33.003Z,99223.22
2023-01-04T17:23:38.873Z,99217.34
2023-01-04T17:26:40.460Z,99205.13
2023-01-04T17:29:41.975Z,99203.31
2023-01-04T17:32:43.453Z,99207.66
2023-01-04T17:35:44.984Z,99211.09
2023-01-04T17:38:46.578Z,99196.25
2023-01-04T17:41:48.154Z,99198.06
2023-01-04T17:44:49.728Z,99178.81
2023-01-04T17:47:51.431Z,99190.06
2023-01-04T17:50:52.956Z,99179.59
2023-01-04T17:53:56.203Z,99168.56
2023-01-04T17:56:57.908Z,99168.56
2023-01-04T17:59:59.457Z,99169.31
2023-01-04T18:03:01.074Z,99152.75
2023-01-04T18:06:25.894Z,99144.22
2023-01-04T18:09:25.609Z,99140.69
2023-01-04T18:12:28.768Z,99142.31
2023-01-04T18:15:30.333Z,99139.75
2023-01-04T18:18:32.110Z,99148.38
2023-01-04T18:21:33.892Z,99128.47
2023-01-04T18:24:38.180Z,99123.28
2023-01-04T18:27:40.056Z,99124.16
2023-01-04T18:30:41.601Z,99123.38
2023-01-04T18:33:43.880Z,99126.91
2023-01-04T18:36:45.616Z,99127.78
2023-01-04T18:39:48.112Z,99118.19
2023-01-04T18:42:49.776Z,99136.59
2023-01-04T18:45:51.350Z,99132.16
2023-01-04T18:48:54.317Z,99125.31
2023-01-04T18:51:55.857Z,99137.47
2023-01-04T18:54:57.438Z,99127.06
2023-01-04T18:57:58.958Z,99142.69
2023-01-04T19:01:05.476Z,99134.00
2023-01-04T19:04:07.031Z,99140.09
2023-01-04T19:07:08.728Z,99147.22
2023-01-04T19:10:10.347Z,99137.59
2023-01-04T19:13:11.955Z,99152.28
2023-01-04T19:16:14.065Z,99154.03
2023-01-04T19:19:15.658Z,99153.16
2023-01-04T19:22:17.205Z,99151.47
2023-01-04T19:25:23.183Z,99148.16
2023-01-04T19:28:27.900Z,99148.97
2023-01-04T19:31:29.412Z,99165.50
2023-01-04T19:34:30.951Z,99162.13
2023-01-04T19:37:32.471Z,99162.09
2023-01-04T19:40:34.071Z,99183.84
2023-01-04T19:43:35.690Z,99185.53
2023-01-04T19:46:38.383Z,99199.75
2023-01-04T19:49:39.961Z,99191.09
2023-01-04T19:52:41.497Z,99214.56
2023-01-04T19:55:43.033Z,99223.38
2023-01-04T19:58:44.616Z,99226.78
2023-01-04T20:01:46.221Z,99216.38
2023-01-04T20:04:47.853Z,99229.44
2023-01-04T20:07:50.777Z,99225.06
2023-01-04T20:10:56.033Z,99235.47
2023-01-04T20:13:57.647Z,99238.09
2023-01-04T20:16:59.319Z,99239.88
2023-01-04T20:20:00.884Z,99239.00
2023-01-04T20:23:02.426Z,99242.47
2023-01-04T20:26:11.402Z,99233.09
2023-01-04T20:29:13.213Z,99230.41
2023-01-04T20:32:14.740Z,99226.88
2023-01-04T20:35:16.325Z,99222.59
2023-01-04T20:38:18.026Z,99212.94
2023-01-04T20:41:21.034Z,99205.84
2023-01-04T20:44:22.542Z,99209.41
2023-01-04T20:47:24.074Z,99204.97
2023-01-04T20:50:25.603Z,99214.69
2023-01-04T20:53:27.204Z,99219.03
2023-01-04T20:56:29.355Z,99222.53
2023-01-04T20:59:30.948Z,99216.41
2023-01-04T21:02:37.914Z,99214.69
2023-01-04T21:05:44.032Z,99215.69
2023-01-04T21:08:45.603Z,99212.13
2023-01-04T21:11:47.137Z,99209.50
2023-01-04T21:14:48.645Z,99203.44
2023-01-04T21:17:50.135Z,99188.66
2023-01-04T21:20:51.784Z,99185.25
2023-01-04T21:23:57.871Z,99185.38
2023-01-04T21:27:00.147Z,99176.69
2023-01-04T21:30:01.707Z,99175.88
2023-01-04T21:33:03.234Z,99179.44
2023-01-04T21:36:12.532Z,99171.47
2023-01-04T21:39:14.060Z,99175.00
2023-01-04T21:42:15.572Z,99167.97
2023-01-04T21:45:17.166Z,99150.56
2023-01-04T21:48:18.723Z,99162.75
2023-01-04T21:51:20.254Z,99153.09
2023-01-04T21:54:21.964Z,99151.41
2023-01-04T21:57:23.518Z,99138.38
2023-01-04T22:00:25.027Z,99156.66
2023-01-04T22:03:26.551Z,99145.34
2023-01-04T22:06:28.134Z,99145.41
2023-01-04T22:09:29.669Z,99145.41
2023-01-04T22:12:31.188Z,99126.19
2023-01-04T22:15:32.725Z,99134.81
2023-01-04T22:18:34.291Z,99130.53
2023-01-04T22:21:35.813Z,99126.25
2023-01-04T22:24:38.205Z,99105.31
2023-01-04T22:27:39.964Z,99107.03
2023-01-04T22:30:42.039Z,99093.97
2023-01-04T22:33:43.758Z,99097.47
2023-01-04T22:36:45.320Z,99074.00
2023-01-04T22:39:46.839Z,99081.03
2023-01-04T22:42:48.536Z,99089.69
2023-01-04T22:45:50.040Z,99102.81
2023-01-04T22:48:51.567Z,99089.75
2023-01-04T22:51:55.442Z,99103.72
2023-01-04T22:54:56.968Z,99101.97
2023-01-04T22:57:58.567Z,99081.03
2023-01-04T23:01:00.134Z,99075.72
2023-01-04T23:04:01.920Z,99066.16
2023-01-04T23:07:03.533Z,99037.59
2023-01-04T23:10:05.564Z,99061.06
2023-01-04T23:13:07.095Z,99044.50
2023-01-04T23:16:11.046Z,99025.34
2023-01-04T23:19:12.857Z,99019.28
2023-01-04T23:22:14.422Z,99022.81
2023-01-04T23:25:15.972Z,99030.69
2023-01-04T23:28:17.488Z,99028.03
2023-01-04T23:31:22.958Z,99021.06
2023-01-04T23:34:24.609Z,98993.16
2023-01-04T23:37:26.138Z,98979.28
2023-01-04T23:40:27.716Z,98973.22
2023-01-04T23:43:29.287Z,98977.63
2023-01-04T23:46:30.776Z,98992.38
2023-01-04T23:49:33.601Z,98985.47
2023-01-04T23:52:35.249Z,98973.22
2023-01-04T23:55:36.772Z,98974.94
2023-01-04T23:58:38.287Z,98983.56
